createdAt,value
2018-05-29T00:01:40.758Z,51.00
2018-05-29T00:04:08.030Z,50.90
2018-05-29T00:06:36.055Z,50.80
2018-05-29T00:09:05.010Z,50.80
2018-05-29T00:11:32.334Z,50.70
2018-05-29T00:13:59.629Z,49.10
2018-05-29T00:16:26.908Z,50.10
2018-05-29T00:18:54.189Z,50.80
2018-05-29T00:23:49.900Z,50.90
2018-05-29T00:28:45.446Z,50.20
2018-05-29T00:31:13.446Z,49.80
2018-05-29T00:33:40.743Z,47.20
2018-05-29T00:36:08.274Z,46.90
2018-05-29T00:38:35.521Z,47.60
2018-05-29T00:41:02.830Z,48.80
2018-05-29T00:43:30.122Z,48.20
2018-05-29T00:45:57.365Z,48.20
2018-05-29T00:50:53.642Z,51.00
2018-05-29T00:53:21.685Z,52.10
2018-05-29T00:55:49.022Z,51.80
2018-05-29T01:03:18.180Z,51.40
2018-05-29T01:05:45.475Z,51.50
2018-05-29T01:10:41.244Z,50.20
2018-05-29T01:13:09.294Z,48.60
2018-05-29T01:15:37.343Z,49.40
2018-05-29T01:18:05.410Z,48.50
2018-05-29T01:20:32.674Z,48.10
2018-05-29T01:22:59.987Z,48.40
2018-05-29T01:27:55.586Z,51.00
2018-05-29T01:30:22.818Z,52.80
2018-05-29T01:32:50.841Z,52.80
2018-05-29T01:35:18.224Z,50.60
2018-05-29T01:37:46.248Z,52.30
2018-05-29T01:47:38.427Z,50.50
2018-05-29T01:50:05.810Z,50.20
2018-05-29T01:55:02.088Z,50.90
2018-05-29T01:57:29.685Z,51.10
2018-05-29T02:02:25.915Z,48.00
2018-05-29T02:04:53.926Z,48.30
2018-05-29T02:07:21.963Z,49.60
2018-05-29T02:14:45.625Z,50.60
2018-05-29T02:17:13.014Z,50.50
2018-05-29T02:19:40.262Z,50.20
2018-05-29T02:22:08.311Z,52.40
2018-05-29T02:24:35.559Z,52.30
2018-05-29T02:27:02.853Z,52.10
2018-05-29T02:31:58.333Z,47.80
2018-05-29T02:34:25.690Z,48.80
2018-05-29T02:36:53.122Z,49.10
2018-05-29T02:39:20.423Z,49.40
2018-05-29T02:41:47.694Z,50.00
2018-05-29T02:46:43.171Z,49.70
2018-05-29T02:49:10.462Z,50.90
2018-05-29T02:51:38.523Z,50.40
2018-05-29T02:54:06.702Z,51.70
2018-05-29T02:56:33.998Z,52.30
2018-05-29T03:01:29.499Z,51.90
2018-05-29T03:03:56.771Z,48.70
2018-05-29T03:06:24.010Z,50.20
2018-05-29T03:11:20.483Z,53.00
2018-05-29T03:16:16.756Z,49.80
2018-05-29T03:18:44.109Z,51.50
2018-05-29T03:21:12.807Z,52.00
2018-05-29T03:23:40.058Z,51.50
2018-05-29T03:26:08.098Z,51.00
2018-05-29T03:31:03.563Z,50.70
2018-05-29T03:33:30.892Z,52.80
2018-05-29T03:35:58.157Z,50.60
2018-05-29T03:38:26.210Z,49.80
2018-05-29T03:43:21.714Z,53.30
2018-05-29T03:48:17.242Z,53.50
2018-05-29T03:53:12.734Z,54.10
2018-05-29T03:55:40.760Z,53.50
2018-05-29T04:03:04.487Z,53.50
2018-05-29T04:05:31.955Z,53.00
2018-05-29T04:07:59.978Z,51.10
2018-05-29T04:10:28.031Z,49.90
2018-05-29T04:12:55.363Z,50.40
2018-05-29T04:17:51.262Z,51.50
2018-05-29T04:20:19.297Z,52.10
2018-05-29T04:25:15.713Z,51.90
2018-05-29T04:27:43.135Z,52.00
2018-05-29T04:30:10.585Z,52.00
2018-05-29T04:32:38.630Z,52.40
2018-05-29T04:35:05.908Z,52.70
2018-05-29T04:37:33.341Z,52.40
2018-05-29T04:42:29.686Z,52.10
2018-05-29T04:47:25.250Z,52.20
2018-05-29T04:49:53.422Z,52.80
2018-05-29T04:52:20.771Z,51.20
2018-05-29T04:54:48.057Z,51.60
2018-05-29T04:59:43.622Z,52.90
2018-05-29T05:02:11.102Z,52.30
2018-05-29T05:04:38.357Z,52.10
2018-05-29T05:09:33.845Z,51.60
2018-05-29T05:16:57.548Z,51.50
2018-05-29T05:19:24.853Z,51.40
2018-05-29T05:21:52.110Z,51.30
2018-05-29T05:24:19.563Z,51.20
2018-05-29T05:26:46.834Z,51.20
2018-05-29T05:31:43.351Z,51.10
2018-05-29T05:34:10.595Z,51.10
2018-05-29T05:39:06.137Z,50.60
2018-05-29T05:44:01.663Z,50.70
2018-05-29T05:46:29.707Z,50.30
2018-05-29T05:56:22.222Z,53.50
2018-05-29T05:58:50.241Z,52.20
2018-05-29T06:06:13.983Z,53.10
2018-05-29T06:08:42.018Z,53.00
2018-05-29T06:13:37.543Z,55.40
2018-05-29T06:18:33.174Z,54.40
2018-05-29T06:21:00.454Z,54.70
2018-05-29T06:25:56.289Z,53.80
2018-05-29T06:28:24.155Z,54.40
2018-05-29T06:30:52.163Z,54.60
2018-05-29T06:35:48.401Z,54.20
2018-05-29T06:40:43.938Z,54.20
2018-05-29T06:43:11.244Z,53.40
2018-05-29T06:48:06.906Z,53.40
2018-05-29T06:50:34.218Z,53.50
2018-05-29T06:53:02.239Z,53.40
2018-05-29T06:55:30.268Z,53.40
2018-05-29T07:00:25.789Z,54.40
2018-05-29T07:02:53.814Z,53.70
2018-05-29T07:05:21.842Z,52.90
2018-05-29T07:07:49.862Z,52.50
2018-05-29T07:10:17.127Z,52.30
2018-05-29T07:12:44.528Z,52.40
2018-05-29T07:15:11.790Z,53.40
2018-05-29T07:17:39.913Z,54.40
2018-05-29T07:22:35.430Z,54.00
2018-05-29T07:29:59.205Z,52.10
2018-05-29T07:32:27.234Z,52.60
2018-05-29T07:37:22.741Z,52.00
2018-05-29T07:42:18.259Z,51.50
2018-05-29T07:44:45.791Z,51.40
2018-05-29T07:47:13.951Z,51.50
2018-05-29T07:49:41.234Z,51.70
2018-05-29T07:52:08.649Z,51.70
2018-05-29T07:54:35.938Z,51.70
2018-05-29T07:57:03.963Z,51.70
2018-05-29T07:59:31.309Z,51.70
2018-05-29T08:01:59.537Z,51.70
2018-05-29T08:04:26.849Z,51.60
2018-05-29T08:06:54.141Z,51.60
2018-05-29T08:09:22.195Z,51.70
2018-05-29T08:11:49.897Z,51.70
2018-05-29T08:16:45.543Z,51.70
2018-05-29T08:19:12.913Z,51.60
2018-05-29T08:21:40.995Z,51.60
2018-05-29T08:24:08.263Z,51.70
2018-05-29T08:26:35.703Z,51.50
2018-05-29T08:29:02.975Z,51.50
2018-05-29T08:31:31.174Z,51.50
2018-05-29T08:33:58.727Z,51.50
2018-05-29T08:41:22.583Z,51.70
2018-05-29T08:43:50.711Z,51.50
2018-05-29T08:46:18.180Z,51.40
2018-05-29T08:48:46.165Z,51.70
2018-05-29T08:51:14.246Z,51.70
2018-05-29T08:56:10.822Z,51.40
2018-05-29T08:58:38.869Z,51.30
2018-05-29T09:01:06.195Z,51.40
2018-05-29T09:06:02.411Z,51.30
2018-05-29T09:08:30.441Z,51.20
2018-05-29T09:10:58.455Z,51.00
2018-05-29T09:13:25.882Z,51.00
2018-05-29T09:15:53.510Z,50.90
2018-05-29T09:18:21.595Z,51.00
2018-05-29T09:23:17.135Z,51.10
2018-05-29T09:25:44.546Z,51.00
2018-05-29T09:33:08.462Z,51.00
2018-05-29T09:38:05.283Z,51.20
2018-05-29T09:40:32.607Z,51.20
2018-05-29T09:42:59.987Z,51.10
2018-05-29T09:50:24.501Z,50.90
2018-05-29T09:52:52.074Z,50.30
2018-05-29T09:55:19.316Z,50.20
2018-05-29T09:57:47.066Z,50.00
2018-05-29T10:00:14.355Z,50.10
2018-05-29T10:07:38.221Z,49.40
2018-05-29T10:10:05.617Z,49.50
2018-05-29T10:12:33.763Z,49.60
2018-05-29T10:19:58.274Z,49.70
2018-05-29T10:24:53.775Z,49.70
2018-05-29T10:29:50.006Z,49.50
2018-05-29T10:32:18.198Z,49.30
2018-05-29T10:34:45.502Z,49.20
2018-05-29T10:37:12.776Z,49.40
2018-05-29T10:39:40.286Z,49.60
2018-05-29T10:42:08.275Z,49.80
2018-05-29T10:44:35.582Z,50.00
2018-05-29T10:49:31.832Z,49.90
2018-05-29T10:51:59.133Z,49.80
2018-05-29T10:59:22.853Z,49.70
2018-05-29T11:01:50.898Z,50.10
2018-05-29T11:06:46.794Z,49.40
2018-05-29T11:14:10.439Z,49.50
2018-05-29T11:19:05.999Z,49.90
2018-05-29T11:21:34.062Z,50.10
2018-05-29T11:24:01.375Z,50.20
2018-05-29T11:28:56.881Z,50.40
2018-05-29T11:31:24.959Z,50.60
2018-05-29T11:33:52.362Z,50.70
2018-05-29T11:38:47.932Z,50.60
2018-05-29T11:41:15.955Z,50.30
2018-05-29T11:46:11.631Z,50.20
2018-05-29T11:48:39.728Z,50.10
2018-05-29T11:51:07.785Z,50.10
2018-05-29T11:53:35.162Z,50.00
2018-05-29T11:56:02.491Z,50.00
2018-05-29T11:58:30.587Z,50.00
2018-05-29T12:00:57.899Z,50.10
2018-05-29T12:03:25.213Z,50.30
2018-05-29T12:05:52.545Z,50.50
2018-05-29T12:08:20.002Z,50.60
2018-05-29T12:10:47.277Z,50.00
2018-05-29T12:13:15.319Z,50.10
2018-05-29T12:15:42.650Z,50.40
2018-05-29T12:18:10.080Z,50.80
2018-05-29T12:20:37.623Z,50.90
2018-05-29T12:23:05.046Z,50.80
2018-05-29T12:25:32.207Z,50.60
2018-05-29T12:27:59.622Z,49.90
2018-05-29T12:30:26.822Z,49.40
2018-05-29T12:32:54.119Z,49.00
2018-05-29T12:35:21.729Z,49.30
2018-05-29T12:37:49.155Z,49.80
2018-05-29T12:40:16.470Z,50.10
2018-05-29T12:42:43.728Z,50.40
2018-05-29T12:45:10.922Z,50.60
2018-05-29T12:47:38.110Z,50.80
2018-05-29T12:50:05.387Z,51.00
2018-05-29T12:52:33.447Z,51.00
2018-05-29T12:55:01.516Z,51.00
2018-05-29T12:57:29.554Z,50.70
2018-05-29T13:04:53.462Z,50.80
2018-05-29T13:07:20.775Z,50.40
2018-05-29T13:09:48.017Z,49.90
2018-05-29T13:12:15.213Z,50.00
2018-05-29T13:14:42.405Z,50.10
2018-05-29T13:19:38.567Z,50.00
2018-05-29T13:22:05.873Z,50.20
2018-05-29T13:24:33.309Z,50.30
2018-05-29T13:29:28.775Z,50.60
2018-05-29T13:31:56.712Z,50.50
2018-05-29T13:34:24.702Z,51.10
2018-05-29T13:36:52.643Z,51.20
2018-05-29T13:46:44.340Z,51.30
2018-05-29T13:49:12.321Z,51.30
2018-05-29T13:51:39.604Z,51.40
2018-05-29T13:54:06.778Z,51.40
2018-05-29T13:56:34.838Z,50.30
2018-05-29T13:59:01.929Z,52.30
2018-05-29T14:03:57.305Z,52.00
2018-05-29T14:06:24.505Z,52.20
2018-05-29T14:08:52.498Z,51.80
2018-05-29T14:11:19.729Z,51.90
2018-05-29T14:13:47.691Z,52.20
2018-05-29T14:16:15.618Z,52.20
2018-05-29T14:18:43.098Z,56.20
2018-05-29T14:21:10.323Z,54.40
2018-05-29T14:23:38.366Z,53.40
2018-05-29T14:28:33.699Z,54.60
2018-05-29T14:31:01.789Z,55.50
2018-05-29T14:33:29.100Z,55.20
2018-05-29T14:35:57.094Z,57.50
2018-05-29T14:38:24.256Z,59.00
2018-05-29T14:40:51.743Z,59.10
2018-05-29T14:43:18.919Z,58.60
2018-05-29T14:45:46.902Z,59.70
2018-05-29T14:48:14.801Z,57.20
2018-05-29T14:50:42.842Z,55.50
2018-05-29T14:53:10.973Z,54.70
2018-05-29T14:55:38.166Z,55.80
2018-05-29T14:58:05.562Z,58.00
2018-05-29T15:00:32.766Z,59.40
2018-05-29T15:03:00.705Z,60.10
2018-05-29T15:07:56.043Z,61.40
2018-05-29T15:10:23.964Z,60.20
2018-05-29T15:12:51.305Z,59.30
2018-05-29T15:15:18.485Z,58.00
2018-05-29T15:17:45.729Z,57.40
2018-05-29T15:20:13.648Z,56.50
2018-05-29T15:22:41.617Z,55.60
2018-05-29T15:25:09.578Z,55.10
2018-05-29T15:27:37.023Z,54.60
2018-05-29T15:32:32.674Z,54.10
2018-05-29T15:35:00.770Z,54.10
2018-05-29T15:39:56.364Z,53.40
2018-05-29T15:47:20.558Z,53.00
2018-05-29T15:49:48.519Z,53.50
2018-05-29T15:54:43.911Z,52.60
2018-05-29T15:57:11.826Z,52.20
2018-05-29T15:59:39.779Z,51.10
2018-05-29T16:07:03.259Z,53.30
2018-05-29T16:09:30.486Z,54.40
2018-05-29T16:11:57.693Z,52.10
2018-05-29T16:14:25.819Z,51.60
2018-05-29T16:16:53.100Z,53.50
2018-05-29T16:19:21.049Z,53.40
2018-05-29T16:21:48.279Z,52.60
2018-05-29T16:24:15.625Z,53.00
2018-05-29T16:26:42.880Z,53.00
2018-05-29T16:29:10.043Z,53.00
2018-05-29T16:31:37.981Z,52.80
2018-05-29T16:34:05.989Z,52.70
2018-05-29T16:39:01.563Z,52.90
2018-05-29T16:41:29.591Z,52.70
2018-05-29T16:43:57.558Z,52.70
2018-05-29T16:46:25.566Z,52.60
2018-05-29T16:51:21.144Z,51.40
2018-05-29T16:53:48.343Z,53.20
2018-05-29T16:56:16.289Z,54.90
2018-05-29T16:58:43.490Z,55.20
2018-05-29T17:01:11.463Z,56.00
2018-05-29T17:03:39.417Z,55.30
2018-05-29T17:06:07.370Z,54.00
2018-05-29T17:11:02.721Z,52.80
2018-05-29T17:13:30.741Z,53.70
2018-05-29T17:15:57.971Z,53.60
2018-05-29T17:20:53.391Z,54.70
2018-05-29T17:23:21.340Z,55.70
2018-05-29T17:25:48.564Z,55.70
2018-05-29T17:28:16.530Z,55.40
2018-05-29T17:33:11.947Z,54.80
2018-05-29T17:35:39.255Z,54.40
2018-05-29T17:40:35.308Z,53.90
2018-05-29T17:43:03.227Z,53.70
2018-05-29T17:45:31.328Z,53.50
2018-05-29T17:50:26.891Z,53.50
2018-05-29T17:55:22.323Z,53.30
2018-05-29T17:57:49.584Z,53.20
2018-05-29T18:00:16.801Z,53.40
2018-05-29T18:02:43.978Z,53.20
2018-05-29T18:05:11.169Z,53.10
2018-05-29T18:07:38.391Z,53.20
2018-05-29T18:10:06.524Z,53.20
2018-05-29T18:12:34.302Z,53.10
2018-05-29T18:15:01.610Z,53.00
2018-05-29T18:17:28.866Z,52.90
2018-05-29T18:22:24.611Z,53.00
2018-05-29T18:27:20.317Z,52.10
2018-05-29T18:29:48.354Z,52.30
2018-05-29T18:34:44.465Z,53.70
2018-05-29T18:37:12.446Z,53.40
2018-05-29T18:39:40.523Z,53.40
2018-05-29T18:49:32.676Z,53.30
2018-05-29T18:52:00.582Z,53.30
2018-05-29T18:54:27.804Z,53.20
2018-05-29T18:56:55.835Z,53.20
2018-05-29T18:59:23.993Z,53.50
2018-05-29T19:01:52.006Z,53.20
2018-05-29T19:04:19.401Z,53.30
2018-05-29T19:09:14.778Z,52.90
2018-05-29T19:11:42.007Z,53.40
2018-05-29T19:14:09.990Z,53.30
2018-05-29T19:16:37.940Z,53.30
2018-05-29T19:21:34.079Z,53.40
2018-05-29T19:24:02.098Z,52.80
2018-05-29T19:28:57.509Z,54.20
2018-05-29T19:31:24.694Z,54.10
2018-05-29T19:33:52.171Z,53.80
2018-05-29T19:36:19.531Z,53.70
2018-05-29T19:38:47.490Z,54.30
2018-05-29T19:41:15.495Z,54.20
2018-05-29T19:43:43.826Z,54.90
2018-05-29T19:48:39.915Z,56.20
2018-05-29T19:51:07.211Z,56.50
2018-05-29T19:56:02.543Z,56.60
2018-05-29T19:58:29.784Z,55.90
2018-05-29T20:03:30.322Z,55.10
2018-05-29T20:05:57.518Z,54.80
2018-05-29T20:08:25.497Z,54.60
2018-05-29T20:10:53.475Z,54.30
2018-05-29T20:13:21.513Z,54.90
2018-05-29T20:18:17.030Z,55.80
2018-05-29T20:23:12.746Z,58.60
2018-05-29T20:25:39.971Z,58.60
2018-05-29T20:28:07.212Z,58.40
2018-05-29T20:30:34.462Z,57.00
2018-05-29T20:33:02.275Z,56.50
2018-05-29T20:35:29.551Z,57.40
2018-05-29T20:37:57.490Z,57.00
2018-05-29T20:40:25.616Z,56.50
2018-05-29T20:48:20.382Z,56.00
2018-05-29T20:50:52.602Z,56.70
2018-05-29T20:53:28.638Z,56.30
2018-05-29T20:55:59.784Z,56.00
2018-05-29T20:58:44.179Z,54.70
2018-05-29T21:06:20.375Z,56.10
2018-05-29T21:08:47.610Z,54.30
2018-05-29T21:11:20.615Z,55.00
2018-05-29T21:13:49.850Z,56.20
2018-05-29T21:21:22.446Z,57.60
2018-05-29T21:23:52.232Z,56.80
2018-05-29T21:26:19.683Z,56.50
2018-05-29T21:28:49.742Z,56.20
2018-05-29T21:31:17.936Z,55.40
2018-05-29T21:33:51.590Z,55.10
2018-05-29T21:36:21.723Z,54.20
2018-05-29T21:38:50.663Z,54.80
2018-05-29T21:41:18.796Z,55.80
2018-05-29T21:43:46.886Z,58.00
2018-05-29T21:46:15.263Z,57.80
2018-05-29T21:48:44.210Z,57.40
2018-05-29T21:51:11.510Z,56.90
2018-05-29T21:53:38.835Z,56.60
2018-05-29T21:56:11.982Z,56.30
2018-05-29T21:58:41.246Z,56.00
2018-05-29T22:01:12.216Z,56.00
2018-05-29T22:03:39.582Z,56.10
2018-05-29T22:06:12.110Z,55.90
2018-05-29T22:08:40.394Z,55.80
2018-05-29T22:11:11.548Z,55.20
2018-05-29T22:13:40.958Z,54.80
2018-05-29T22:16:10.598Z,54.80
2018-05-29T22:18:40.747Z,55.90
2018-05-29T22:21:10.787Z,56.00
2018-05-29T22:23:40.805Z,56.10
2018-05-29T22:26:09.112Z,56.70
2018-05-29T22:28:37.237Z,57.40
2018-05-29T22:31:05.450Z,57.90
2018-05-29T22:33:34.281Z,57.90
2018-05-29T22:38:32.128Z,59.20
2018-05-29T22:41:01.290Z,61.80
2018-05-29T22:45:57.693Z,61.90
2018-05-29T22:48:29.179Z,59.90
2018-05-29T22:53:28.685Z,59.70
2018-05-29T22:55:58.393Z,59.60
2018-05-29T22:58:27.616Z,60.50
2018-05-29T23:00:59.706Z,58.70
2018-05-29T23:03:28.702Z,56.70
2018-05-29T23:05:59.593Z,56.20
2018-05-29T23:08:29.669Z,57.20
2018-05-29T23:10:57.955Z,58.10
2018-05-29T23:13:27.398Z,59.20
2018-05-29T23:15:57.378Z,60.20
2018-05-29T23:18:28.364Z,62.50
2018-05-29T23:20:55.626Z,63.10
2018-05-29T23:23:22.986Z,62.90
2018-05-29T23:25:51.380Z,61.60
2018-05-29T23:28:18.842Z,63.40
2018-05-29T23:30:46.902Z,61.80
2018-05-29T23:33:14.507Z,60.30
2018-05-29T23:35:43.842Z,60.00
2018-05-29T23:38:11.227Z,59.10
2018-05-29T23:40:41.559Z,56.30
2018-05-29T23:43:10.553Z,57.70
2018-05-29T23:45:40.174Z,59.00
2018-05-29T23:48:07.479Z,59.90
2018-05-29T23:50:36.851Z,59.80
2018-05-29T23:53:05.272Z,59.20
2018-05-29T23:55:33.537Z,58.60
2018-05-29T23:58:03.378Z,60.80
